createdAt,value
2019-03-24T00:00:06.801Z,0.2
2019-03-24T00:00:18.572Z,0.1
2019-03-24T00:00:30.351Z,0.1
2019-03-24T00:00:42.119Z,0.1
2019-03-24T00:00:53.902Z,0.3
2019-03-24T00:01:05.672Z,0.3
2019-03-24T00:01:17.464Z,0.2
2019-03-24T00:01:29.253Z,0.2
2019-03-24T00:01:41.978Z,0.3
2019-03-24T00:01:53.740Z,0.3
2019-03-24T00:02:05.506Z,0.4
2019-03-24T00:02:17.256Z,0.3
2019-03-24T00:02:29.031Z,0.3
2019-03-24T00:02:40.822Z,0.2
2019-03-24T00:02:52.598Z,0.2
2019-03-24T00:03:04.355Z,0.1
2019-03-24T00:03:16.131Z,0.1
2019-03-24T00:03:27.879Z,0.1
2019-03-24T00:03:39.665Z,0.4
2019-03-24T00:03:51.409Z,0.6
2019-03-24T00:04:03.193Z,0.5
2019-03-24T00:04:15.006Z,0.3
2019-03-24T00:04:26.786Z,0.3
2019-03-24T00:04:38.566Z,0.3
2019-03-24T00:04:50.307Z,0.2
2019-03-24T00:05:02.060Z,0.2
2019-03-24T00:05:13.833Z,0.2
2019-03-24T00:05:25.588Z,0.2
2019-03-24T00:05:37.386Z,0.2
2019-03-24T00:05:49.296Z,0.3
2019-03-24T00:06:01.051Z,0.5
2019-03-24T00:06:12.814Z,0.5
2019-03-24T00:06:24.561Z,0.4
2019-03-24T00:06:36.312Z,0.3
2019-03-24T00:06:48.090Z,0.2
2019-03-24T00:06:59.848Z,0.2
2019-03-24T00:07:11.651Z,0.2
2019-03-24T00:07:23.421Z,0.2
2019-03-24T00:07:35.209Z,0.2
2019-03-24T00:07:46.957Z,0.2
2019-03-24T00:07:58.744Z,0.4
2019-03-24T00:08:10.551Z,0.4
2019-03-24T00:08:22.308Z,0.5
2019-03-24T00:08:34.072Z,0.2
2019-03-24T00:08:45.830Z,0.2
2019-03-24T00:08:57.618Z,0.2
2019-03-24T00:09:09.379Z,0.2
2019-03-24T00:09:21.133Z,0.2
2019-03-24T00:09:32.916Z,0.2
2019-03-24T00:09:44.700Z,0.2
2019-03-24T00:09:56.451Z,0.2
2019-03-24T00:10:08.227Z,0.3
2019-03-24T00:10:20.015Z,0.3
2019-03-24T00:10:31.765Z,0.3
2019-03-24T00:10:43.529Z,0.2
2019-03-24T00:10:55.307Z,0.2
2019-03-24T00:11:07.104Z,0.2
2019-03-24T00:11:18.883Z,0.3
2019-03-24T00:11:30.655Z,0.2
2019-03-24T00:11:42.455Z,0.1
2019-03-24T00:11:54.245Z,0.2
2019-03-24T00:12:06.001Z,0.1
2019-03-24T00:12:17.779Z,0.1
2019-03-24T00:12:29.540Z,0.1
2019-03-24T00:12:41.352Z,0.1
2019-03-24T00:12:53.129Z,0.2
2019-03-24T00:13:04.898Z,0.2
2019-03-24T00:13:16.659Z,0.1
2019-03-24T00:13:28.423Z,0.1
2019-03-24T00:13:40.193Z,0.1
2019-03-24T00:13:51.966Z,0.1
2019-03-24T00:14:03.716Z,0.2
2019-03-24T00:14:15.515Z,0.2
2019-03-24T00:14:27.273Z,0.3
2019-03-24T00:14:39.037Z,0.4
2019-03-24T00:14:50.810Z,0.4
2019-03-24T00:15:02.591Z,0.5
2019-03-24T00:15:14.354Z,0.4
2019-03-24T00:15:27.084Z,0.4
2019-03-24T00:15:38.888Z,0.2
2019-03-24T00:15:50.680Z,0.2
2019-03-24T00:16:02.471Z,0.2
2019-03-24T00:16:14.232Z,0.1
2019-03-24T00:16:26.002Z,0.1
2019-03-24T00:16:37.760Z,0.1
2019-03-24T00:16:49.556Z,0.1
2019-03-24T00:17:01.343Z,0.1
2019-03-24T00:17:13.110Z,0.1
2019-03-24T00:17:24.887Z,0.1
2019-03-24T00:17:36.643Z,0.1
2019-03-24T00:17:48.429Z,0.2
2019-03-24T00:18:00.212Z,0.2
2019-03-24T00:18:11.970Z,0.2
2019-03-24T00:18:23.739Z,0.2
2019-03-24T00:18:35.499Z,0.2
2019-03-24T00:18:47.296Z,0.1
2019-03-24T00:18:59.042Z,0.1
2019-03-24T00:19:10.802Z,0.1
2019-03-24T00:19:22.590Z,0.1
2019-03-24T00:19:34.344Z,0.2
2019-03-24T00:19:46.121Z,0.2
2019-03-24T00:19:57.913Z,0.2
2019-03-24T00:20:10.306Z,0.2
2019-03-24T00:20:21.419Z,0.2
2019-03-24T00:20:33.197Z,0.2
2019-03-24T00:20:45.016Z,0.3
2019-03-24T00:20:56.768Z,0.2
2019-03-24T00:21:08.545Z,0.2
2019-03-24T00:21:20.327Z,0.2
2019-03-24T00:21:32.083Z,0.2
2019-03-24T00:21:43.856Z,0.1
2019-03-24T00:21:55.631Z,0.1
2019-03-24T00:22:07.430Z,0.1
2019-03-24T00:22:19.203Z,0.2
2019-03-24T00:22:30.967Z,0.1
2019-03-24T00:22:42.740Z,0.1
2019-03-24T00:22:54.497Z,0.1
2019-03-24T00:23:06.243Z,0.1
2019-03-24T00:23:18.002Z,0.1
2019-03-24T00:23:29.809Z,0.2
2019-03-24T00:23:41.562Z,0.2
2019-03-24T00:23:53.331Z,0.2
2019-03-24T00:24:05.093Z,0.1
2019-03-24T00:24:16.874Z,0.1
2019-03-24T00:24:28.651Z,0.1
2019-03-24T00:24:40.413Z,0.1
2019-03-24T00:24:52.192Z,0.1
2019-03-24T00:25:03.957Z,0.1
2019-03-24T00:25:15.719Z,0.1
2019-03-24T00:25:27.492Z,0.2
2019-03-24T00:25:39.257Z,0.2
2019-03-24T00:25:51.016Z,0.1
2019-03-24T00:26:02.799Z,0.3
2019-03-24T00:26:14.546Z,0.3
2019-03-24T00:26:26.311Z,0.2
2019-03-24T00:26:38.097Z,0.2
2019-03-24T00:26:49.866Z,0.2
2019-03-24T00:27:01.664Z,0.2
2019-03-24T00:27:13.403Z,0.1
2019-03-24T00:27:25.214Z,0.1
2019-03-24T00:27:36.970Z,0.1
2019-03-24T00:27:48.710Z,0.1
2019-03-24T00:28:00.487Z,0.1
2019-03-24T00:28:12.251Z,0.1
2019-03-24T00:28:24.034Z,0.1
2019-03-24T00:28:35.784Z,0.1
2019-03-24T00:28:47.560Z,0.1
2019-03-24T00:28:59.325Z,0.2
2019-03-24T00:29:11.105Z,0.2
2019-03-24T00:29:22.904Z,0.2
2019-03-24T00:29:34.660Z,0.2
2019-03-24T00:29:46.447Z,0.2
2019-03-24T00:29:58.218Z,0.2
2019-03-24T00:30:14.212Z,0.2
2019-03-24T00:30:25.986Z,0.2
2019-03-24T00:30:37.761Z,0.5
2019-03-24T00:30:49.525Z,0.5
2019-03-24T00:31:01.324Z,0.4
2019-03-24T00:31:13.078Z,0.2
2019-03-24T00:31:24.835Z,0.1
2019-03-24T00:31:36.629Z,0.3
2019-03-24T00:31:48.465Z,0.4
2019-03-24T00:32:00.220Z,0.4
2019-03-24T00:32:12.016Z,0.2
2019-03-24T00:32:23.785Z,0.2
2019-03-24T00:32:36.561Z,0.2
2019-03-24T00:32:48.322Z,0.1
2019-03-24T00:33:00.087Z,0.1
2019-03-24T00:33:11.869Z,0.1
2019-03-24T00:33:23.649Z,0.1
2019-03-24T00:33:35.425Z,0.1
2019-03-24T00:33:47.214Z,0.1
2019-03-24T00:33:58.986Z,0.2
2019-03-24T00:34:10.795Z,0.3
2019-03-24T00:34:22.576Z,0.3
2019-03-24T00:34:34.345Z,0.3
2019-03-24T00:34:48.093Z,0.2
2019-03-24T00:34:57.911Z,0.2
2019-03-24T00:35:09.694Z,0.3
2019-03-24T00:35:21.450Z,0.3
2019-03-24T00:35:33.241Z,0.3
2019-03-24T00:35:45.018Z,0.2
2019-03-24T00:35:56.774Z,0.1
2019-03-24T00:36:09.528Z,0.3
2019-03-24T00:36:21.295Z,0.3
2019-03-24T00:36:33.081Z,0.1
2019-03-24T00:36:44.877Z,0.2
2019-03-24T00:36:56.649Z,0.2
2019-03-24T00:37:08.422Z,0.4
2019-03-24T00:37:20.203Z,0.4
2019-03-24T00:37:31.952Z,0.2
2019-03-24T00:37:43.723Z,0.2
2019-03-24T00:37:55.489Z,0.2
2019-03-24T00:38:07.274Z,0.2
2019-03-24T00:38:19.075Z,0.2
2019-03-24T00:38:30.833Z,0.4
2019-03-24T00:38:42.579Z,0.4
2019-03-24T00:38:54.357Z,0.1
2019-03-24T00:39:06.140Z,0.1
2019-03-24T00:39:17.930Z,0.2
2019-03-24T00:39:29.729Z,0.2
2019-03-24T00:39:41.490Z,0.1
2019-03-24T00:39:53.247Z,0.3
2019-03-24T00:40:05.028Z,0.5
2019-03-24T00:40:16.779Z,0.3
2019-03-24T00:40:28.563Z,0.3
2019-03-24T00:40:40.324Z,0.1
2019-03-24T00:40:53.074Z,0.1
2019-03-24T00:41:04.863Z,0.2
2019-03-24T00:41:16.606Z,0.2
2019-03-24T00:41:28.387Z,0.3
2019-03-24T00:41:40.165Z,0.4
2019-03-24T00:41:51.916Z,0.4
2019-03-24T00:42:03.694Z,0.4
2019-03-24T00:42:15.456Z,0.2
2019-03-24T00:42:27.351Z,0.1
2019-03-24T00:42:39.072Z,0.1
2019-03-24T00:42:50.867Z,0.1
2019-03-24T00:43:02.642Z,0.1
2019-03-24T00:43:14.389Z,0.2
2019-03-24T00:43:26.162Z,0.2
2019-03-24T00:43:37.927Z,0.2
2019-03-24T00:43:49.697Z,0.3
2019-03-24T00:44:01.476Z,0.2
2019-03-24T00:44:13.240Z,0.1
2019-03-24T00:44:25.020Z,0.1
2019-03-24T00:44:36.763Z,0.1
2019-03-24T00:44:48.529Z,0.1
2019-03-24T00:45:00.339Z,0.1
2019-03-24T00:45:12.091Z,0.1
2019-03-24T00:45:23.885Z,0.1
2019-03-24T00:45:37.246Z,0.2
2019-03-24T00:45:48.372Z,0.2
2019-03-24T00:46:00.113Z,0.2
2019-03-24T00:46:11.918Z,0.2
2019-03-24T00:46:23.708Z,0.2
2019-03-24T00:46:35.459Z,0.2
2019-03-24T00:46:47.232Z,0.2
2019-03-24T00:46:58.978Z,0.1
2019-03-24T00:47:10.762Z,0.1
2019-03-24T00:47:22.573Z,0.2
2019-03-24T00:47:34.355Z,0.2
2019-03-24T00:47:46.140Z,0.2
2019-03-24T00:47:57.901Z,0.2
2019-03-24T00:48:09.685Z,0.2
2019-03-24T00:48:21.462Z,0.2
2019-03-24T00:48:33.228Z,0.2
2019-03-24T00:48:45.007Z,0.2
2019-03-24T00:48:56.766Z,0.1
2019-03-24T00:49:08.521Z,0.1
2019-03-24T00:49:20.285Z,0.1
2019-03-24T00:49:32.085Z,0.2
2019-03-24T00:49:43.893Z,0.2
2019-03-24T00:49:55.631Z,0.2
2019-03-24T00:50:07.401Z,0.2
2019-03-24T00:50:19.167Z,0.3
2019-03-24T00:50:30.929Z,0.3
2019-03-24T00:50:42.727Z,0.1
2019-03-24T00:50:54.506Z,0.1
2019-03-24T00:51:06.271Z,0.1
2019-03-24T00:51:18.043Z,0.1
2019-03-24T00:51:29.786Z,0.2
2019-03-24T00:51:41.562Z,0.3
2019-03-24T00:51:53.301Z,0.3
2019-03-24T00:52:05.094Z,0.2
2019-03-24T00:52:16.858Z,0.3
2019-03-24T00:52:28.608Z,0.3
2019-03-24T00:52:40.385Z,0.4
2019-03-24T00:52:52.146Z,0.3
2019-03-24T00:53:03.911Z,0.2
2019-03-24T00:53:15.732Z,0.2
2019-03-24T00:53:27.512Z,0.1
2019-03-24T00:53:39.300Z,0.1
2019-03-24T00:53:51.067Z,0.2
2019-03-24T00:54:02.874Z,0.2
2019-03-24T00:54:14.642Z,0.4
2019-03-24T00:54:26.385Z,0.4
2019-03-24T00:54:38.139Z,0.1
2019-03-24T00:54:49.911Z,0.5
2019-03-24T00:55:01.683Z,0.6
2019-03-24T00:55:13.437Z,0.6
2019-03-24T00:55:25.237Z,0.2
2019-03-24T00:55:37.017Z,0.2
2019-03-24T00:55:48.810Z,0.2
2019-03-24T00:56:00.583Z,0.1
2019-03-24T00:56:12.387Z,0.1
2019-03-24T00:56:24.150Z,0.1
2019-03-24T00:56:35.928Z,0.1
2019-03-24T00:56:47.700Z,0.2
2019-03-24T00:56:59.481Z,0.2
2019-03-24T00:57:11.247Z,0.2
2019-03-24T00:57:23.045Z,0.4
2019-03-24T00:57:34.786Z,0.4
2019-03-24T00:57:46.559Z,0.2
2019-03-24T00:57:58.323Z,0.2
2019-03-24T00:58:11.109Z,0.2
2019-03-24T00:58:22.859Z,0.2
2019-03-24T00:58:34.615Z,0.2
2019-03-24T00:58:46.378Z,0.1
2019-03-24T00:58:58.167Z,0.1
2019-03-24T00:59:10.923Z,0.1
2019-03-24T00:59:22.674Z,0.2
2019-03-24T00:59:34.450Z,0.3
2019-03-24T00:59:46.217Z,0.2
2019-03-24T00:59:57.981Z,0.2
2019-03-24T01:00:09.743Z,0.2
2019-03-24T01:00:22.498Z,0.2
2019-03-24T01:00:34.277Z,0.2
2019-03-24T01:00:46.047Z,0.2
2019-03-24T01:00:57.806Z,0.2
2019-03-24T01:01:09.595Z,0.1
2019-03-24T01:01:21.368Z,0.1
2019-03-24T01:01:33.141Z,0.1
2019-03-24T01:01:44.916Z,0.1
2019-03-24T01:01:56.680Z,0.2
2019-03-24T01:02:08.442Z,0.1
2019-03-24T01:02:20.185Z,0.2
2019-03-24T01:02:31.944Z,0.2
2019-03-24T01:02:43.725Z,0.2
2019-03-24T01:02:55.481Z,0.2
2019-03-24T01:03:07.244Z,0.3
2019-03-24T01:03:19.021Z,0.3
2019-03-24T01:03:30.758Z,0.2
2019-03-24T01:03:42.522Z,0.1
2019-03-24T01:03:54.285Z,0.2
2019-03-24T01:04:06.038Z,0.2
2019-03-24T01:04:17.821Z,0.1
2019-03-24T01:04:29.615Z,0.1
2019-03-24T01:04:41.524Z,0.1
2019-03-24T01:04:53.307Z,0.1
2019-03-24T01:05:05.052Z,0.2
2019-03-24T01:05:16.795Z,0.2
2019-03-24T01:05:28.578Z,0.2
2019-03-24T01:05:40.327Z,0.2
2019-03-24T01:05:52.084Z,0.2
2019-03-24T01:06:03.824Z,0.3
2019-03-24T01:06:15.571Z,0.3
2019-03-24T01:06:27.398Z,0.3
2019-03-24T01:06:39.160Z,0.1
2019-03-24T01:06:50.945Z,0.1
2019-03-24T01:07:02.709Z,0.1
2019-03-24T01:07:14.484Z,0.1
2019-03-24T01:07:26.258Z,0.1
2019-03-24T01:07:38.048Z,0.1
2019-03-24T01:07:49.811Z,0.2
2019-03-24T01:08:01.582Z,0.2
2019-03-24T01:08:13.331Z,0.2
2019-03-24T01:08:25.087Z,0.2
2019-03-24T01:08:36.863Z,0.2
2019-03-24T01:08:48.634Z,0.2
2019-03-24T01:09:00.425Z,0.2
2019-03-24T01:09:12.187Z,0.2
2019-03-24T01:09:23.964Z,0.3
2019-03-24T01:09:35.746Z,0.3
2019-03-24T01:09:47.508Z,0.2
2019-03-24T01:09:59.299Z,0.1
2019-03-24T01:10:11.084Z,0.1
2019-03-24T01:10:22.861Z,0.1
2019-03-24T01:10:34.631Z,0.3
2019-03-24T01:10:46.383Z,0.3
2019-03-24T01:10:58.148Z,0.2
2019-03-24T01:11:09.940Z,0.2
2019-03-24T01:11:21.704Z,0.3
2019-03-24T01:11:33.484Z,0.2
2019-03-24T01:11:45.240Z,0.1
2019-03-24T01:11:57.025Z,0.1
2019-03-24T01:12:08.775Z,0.1
2019-03-24T01:12:20.562Z,0.1
2019-03-24T01:12:32.334Z,0.1
2019-03-24T01:12:44.083Z,0.1
2019-03-24T01:12:55.850Z,0.2
2019-03-24T01:13:07.631Z,0.5
2019-03-24T01:13:19.378Z,0.8
2019-03-24T01:13:31.130Z,0.7
2019-03-24T01:13:42.900Z,0.4
2019-03-24T01:13:54.676Z,0.1
2019-03-24T01:14:06.458Z,0.1
2019-03-24T01:14:18.226Z,0.2
2019-03-24T01:14:29.999Z,0.2
2019-03-24T01:14:41.746Z,0.1
2019-03-24T01:14:53.538Z,0.1
2019-03-24T01:15:05.338Z,0.2
2019-03-24T01:15:17.105Z,0.2
2019-03-24T01:15:28.880Z,0.5
2019-03-24T01:15:47.537Z,0.4
2019-03-24T01:15:53.355Z,0.5
2019-03-24T01:16:05.104Z,0.1
2019-03-24T01:16:16.876Z,0.2
2019-03-24T01:16:28.620Z,0.3
2019-03-24T01:16:40.382Z,0.3
2019-03-24T01:16:52.164Z,0.2
2019-03-24T01:17:03.935Z,0.2
2019-03-24T01:17:15.693Z,0.2
2019-03-24T01:17:27.473Z,0.2
2019-03-24T01:17:39.258Z,0.3
2019-03-24T01:17:51.034Z,0.3
2019-03-24T01:18:03.810Z,0.2
2019-03-24T01:18:15.581Z,0.1
2019-03-24T01:18:27.349Z,0.1
2019-03-24T01:18:39.107Z,0.1
2019-03-24T01:18:50.872Z,0.2
2019-03-24T01:19:02.635Z,0.2
2019-03-24T01:19:14.413Z,0.2
2019-03-24T01:19:26.195Z,0.1
2019-03-24T01:19:37.982Z,0.1
2019-03-24T01:19:49.739Z,0.1
2019-03-24T01:20:01.655Z,0.3
2019-03-24T01:20:13.423Z,0.5
2019-03-24T01:20:25.187Z,0.5
2019-03-24T01:20:36.938Z,0.3
2019-03-24T01:20:48.737Z,0.3
2019-03-24T01:21:00.527Z,0.1
2019-03-24T01:21:12.315Z,0.1
2019-03-24T01:21:24.051Z,0.2
2019-03-24T01:21:35.826Z,0.2
2019-03-24T01:21:47.572Z,0.2
2019-03-24T01:21:59.335Z,0.2
2019-03-24T01:22:11.101Z,0.2
2019-03-24T01:22:22.867Z,0.2
2019-03-24T01:22:34.639Z,0.2
2019-03-24T01:22:46.415Z,0.2
2019-03-24T01:22:58.170Z,0.3
2019-03-24T01:23:09.971Z,0.2
2019-03-24T01:23:21.752Z,0.3
2019-03-24T01:23:33.526Z,0.2
2019-03-24T01:23:45.283Z,0.1
2019-03-24T01:23:57.045Z,0.2
2019-03-24T01:24:08.830Z,0.2
2019-03-24T01:24:20.591Z,0.2
2019-03-24T01:24:32.375Z,0.2
2019-03-24T01:24:44.126Z,0.2
2019-03-24T01:24:55.961Z,0.2
2019-03-24T01:25:07.716Z,0.2
2019-03-24T01:25:19.495Z,0.2
2019-03-24T01:25:31.270Z,0.2
2019-03-24T01:25:43.091Z,0.2
2019-03-24T01:25:54.818Z,0.2
2019-03-24T01:26:06.602Z,0.2
2019-03-24T01:26:18.365Z,0.1
2019-03-24T01:26:30.160Z,0.2
2019-03-24T01:26:41.926Z,0.1
2019-03-24T01:26:53.685Z,0.1
2019-03-24T01:27:05.450Z,0.1
2019-03-24T01:27:17.187Z,0.2
2019-03-24T01:27:28.946Z,0.3
2019-03-24T01:27:40.690Z,0.4
2019-03-24T01:27:52.463Z,0.3
2019-03-24T01:28:04.224Z,0.2
2019-03-24T01:28:16.966Z,0.2
2019-03-24T01:28:28.715Z,0.2
2019-03-24T01:28:40.514Z,0.2
2019-03-24T01:28:52.293Z,0.2
2019-03-24T01:29:04.067Z,0.2
2019-03-24T01:29:15.835Z,0.2
2019-03-24T01:29:27.587Z,0.2
2019-03-24T01:29:39.388Z,0.2
2019-03-24T01:29:51.153Z,0.1
2019-03-24T01:30:02.954Z,0.2
2019-03-24T01:30:14.733Z,0.2
2019-03-24T01:30:26.509Z,0.2
2019-03-24T01:30:38.293Z,0.1
2019-03-24T01:30:50.052Z,0.2
2019-03-24T01:31:01.860Z,0.2
2019-03-24T01:31:13.639Z,0.1
2019-03-24T01:31:26.419Z,0.1
2019-03-24T01:31:38.195Z,0.1
2019-03-24T01:31:49.951Z,0.2
2019-03-24T01:32:01.708Z,0.2
2019-03-24T01:32:13.491Z,0.2
2019-03-24T01:32:25.264Z,0.1
2019-03-24T01:32:37.022Z,0.1
2019-03-24T01:32:48.805Z,0.1
2019-03-24T01:33:00.585Z,0.1
2019-03-24T01:33:12.356Z,0.1
2019-03-24T01:33:24.132Z,0.1
2019-03-24T01:33:35.918Z,0.1
2019-03-24T01:33:47.679Z,0.3
2019-03-24T01:33:59.437Z,0.4
2019-03-24T01:34:11.233Z,0.2
2019-03-24T01:34:22.981Z,0.2
2019-03-24T01:34:34.786Z,0.1
2019-03-24T01:34:46.576Z,0.1
2019-03-24T01:34:58.345Z,0.2
2019-03-24T01:35:10.114Z,0.2
2019-03-24T01:35:21.902Z,0.2
2019-03-24T01:35:33.674Z,0.2
2019-03-24T01:35:45.461Z,0.2
2019-03-24T01:35:57.232Z,0.3
2019-03-24T01:36:10.378Z,0.3
2019-03-24T01:36:22.151Z,0.2
2019-03-24T01:36:33.920Z,0.1
2019-03-24T01:36:45.708Z,0.1
2019-03-24T01:36:57.480Z,0.1
2019-03-24T01:37:09.280Z,0.1
2019-03-24T01:37:21.066Z,0.1
2019-03-24T01:37:32.839Z,0.1
2019-03-24T01:37:44.619Z,0.1
2019-03-24T01:37:56.408Z,0.1
2019-03-24T01:38:08.193Z,0.2
2019-03-24T01:38:19.969Z,0.2
2019-03-24T01:38:31.709Z,0.2
2019-03-24T01:38:43.486Z,0.2
2019-03-24T01:38:55.242Z,0.2
2019-03-24T01:39:07.014Z,0.2
2019-03-24T01:39:18.804Z,0.1
2019-03-24T01:39:30.581Z,0.2
2019-03-24T01:39:42.329Z,0.2
2019-03-24T01:39:54.106Z,0.2
2019-03-24T01:40:05.871Z,0.1
2019-03-24T01:40:17.637Z,0.1
2019-03-24T01:40:29.436Z,0.2
2019-03-24T01:40:41.216Z,0.2
2019-03-24T01:40:53.037Z,0.2
2019-03-24T01:41:04.804Z,0.1
2019-03-24T01:41:16.557Z,0.1
2019-03-24T01:41:28.314Z,0.2
2019-03-24T01:41:40.108Z,0.2
2019-03-24T01:41:51.869Z,0.2
2019-03-24T01:42:03.633Z,0.2
2019-03-24T01:42:15.391Z,0.1
2019-03-24T01:42:27.172Z,0.2
2019-03-24T01:42:38.944Z,0.2
2019-03-24T01:42:50.707Z,0.2
2019-03-24T01:43:02.501Z,0.1
2019-03-24T01:43:14.260Z,0.1
2019-03-24T01:43:26.071Z,0.1
2019-03-24T01:43:37.865Z,0.1
2019-03-24T01:43:49.614Z,0.1
2019-03-24T01:44:01.375Z,0.1
2019-03-24T01:44:13.148Z,0.1
2019-03-24T01:44:24.915Z,0.2
2019-03-24T01:44:36.679Z,0.2
2019-03-24T01:44:48.464Z,0.2
2019-03-24T01:45:00.249Z,0.3
2019-03-24T01:45:11.954Z,0.3
2019-03-24T01:45:23.741Z,0.3
2019-03-24T01:45:35.512Z,0.3
2019-03-24T01:45:57.882Z,0.1
2019-03-24T01:45:59.986Z,0.1
2019-03-24T01:46:11.749Z,0.1
2019-03-24T01:46:23.529Z,0.1
2019-03-24T01:46:35.313Z,0.1
2019-03-24T01:46:47.080Z,0.2
2019-03-24T01:46:58.858Z,0.2
2019-03-24T01:47:10.772Z,0.1
2019-03-24T01:47:22.516Z,0.1
2019-03-24T01:47:34.320Z,0.1
2019-03-24T01:47:46.075Z,0.1
2019-03-24T01:47:57.850Z,0.2
2019-03-24T01:48:09.655Z,0.2
2019-03-24T01:48:21.411Z,0.2
2019-03-24T01:48:33.156Z,0.1
2019-03-24T01:48:44.946Z,0.1
2019-03-24T01:48:56.714Z,0.1
2019-03-24T01:49:08.480Z,0.1
2019-03-24T01:49:20.257Z,0.1
2019-03-24T01:49:32.022Z,0.1
2019-03-24T01:49:43.800Z,0.1
2019-03-24T01:49:55.577Z,0.2
2019-03-24T01:50:07.321Z,0.2
2019-03-24T01:50:19.078Z,0.1
2019-03-24T01:50:30.876Z,0.2
2019-03-24T01:50:42.630Z,0.2
2019-03-24T01:50:54.390Z,0.2
2019-03-24T01:51:06.142Z,0.1
2019-03-24T01:51:17.911Z,0.1
2019-03-24T01:51:29.681Z,0.1
2019-03-24T01:51:41.434Z,0.1
2019-03-24T01:51:53.199Z,0.3
2019-03-24T01:52:05.000Z,0.3
2019-03-24T01:52:17.767Z,0.2
2019-03-24T01:52:29.553Z,0.1
2019-03-24T01:52:41.335Z,0.2
2019-03-24T01:52:53.108Z,0.2
2019-03-24T01:53:04.897Z,0.2
2019-03-24T01:53:16.679Z,0.3
2019-03-24T01:53:28.447Z,0.2
2019-03-24T01:53:40.225Z,0.2
2019-03-24T01:53:52.020Z,0.1
2019-03-24T01:54:03.782Z,0.1
2019-03-24T01:54:15.561Z,0.1
2019-03-24T01:54:27.324Z,0.1
2019-03-24T01:54:39.116Z,0.1
2019-03-24T01:54:50.879Z,0.1
2019-03-24T01:55:02.665Z,0.2
2019-03-24T01:55:14.468Z,0.2
2019-03-24T01:55:26.237Z,0.1
2019-03-24T01:55:37.997Z,0.1
2019-03-24T01:55:49.775Z,0.1
2019-03-24T01:56:01.557Z,0.3
2019-03-24T01:56:13.314Z,0.3
2019-03-24T01:56:25.095Z,0.3
2019-03-24T01:56:36.893Z,0.2
2019-03-24T01:56:48.689Z,0.1
2019-03-24T01:57:00.427Z,0.1
2019-03-24T01:57:12.243Z,0.1
2019-03-24T01:57:24.002Z,0.1
2019-03-24T01:57:35.756Z,0.1
2019-03-24T01:57:47.500Z,0.1
2019-03-24T01:57:59.297Z,0.1
2019-03-24T01:58:11.079Z,0.1
2019-03-24T01:58:22.868Z,0.1
2019-03-24T01:58:34.649Z,0.2
2019-03-24T01:58:46.421Z,0.2
2019-03-24T01:58:58.179Z,0.2
2019-03-24T01:59:09.950Z,0.1
2019-03-24T01:59:21.713Z,0.1
2019-03-24T01:59:33.498Z,0.1
2019-03-24T01:59:45.258Z,0.1
2019-03-24T01:59:57.041Z,0.1
2019-03-24T02:00:08.780Z,0.1
2019-03-24T02:00:20.560Z,0.1
2019-03-24T02:00:32.320Z,0.2
2019-03-24T02:00:44.081Z,0.2
2019-03-24T02:00:55.854Z,0.2
2019-03-24T02:01:07.654Z,0.2
2019-03-24T02:01:19.433Z,0.2
2019-03-24T02:01:31.212Z,0.2
2019-03-24T02:01:42.983Z,0.1
2019-03-24T02:01:54.852Z,0.1
2019-03-24T02:02:06.626Z,0.2
2019-03-24T02:02:18.411Z,0.2
2019-03-24T02:02:30.166Z,0.2
2019-03-24T02:02:41.962Z,0.2
2019-03-24T02:02:53.727Z,0.1
2019-03-24T02:03:05.491Z,0.4
2019-03-24T02:03:17.259Z,0.4
2019-03-24T02:03:29.024Z,0.4
2019-03-24T02:03:40.807Z,0.2
2019-03-24T02:03:52.554Z,0.2
2019-03-24T02:04:04.339Z,0.1
2019-03-24T02:04:16.104Z,0.1
2019-03-24T02:04:27.886Z,0.1
2019-03-24T02:04:39.650Z,0.1
2019-03-24T02:04:51.444Z,0.1
2019-03-24T02:05:03.202Z,0.2
2019-03-24T02:05:14.968Z,0.2
2019-03-24T02:05:26.726Z,0.2
2019-03-24T02:05:38.509Z,0.1
2019-03-24T02:05:50.269Z,0.1
2019-03-24T02:06:02.043Z,0.1
2019-03-24T02:06:13.799Z,0.2
2019-03-24T02:06:25.554Z,0.2
2019-03-24T02:06:38.631Z,0.2
2019-03-24T02:06:49.065Z,0.2
2019-03-24T02:07:00.860Z,0.1
2019-03-24T02:07:12.661Z,0.2
2019-03-24T02:07:24.445Z,0.2
2019-03-24T02:07:36.230Z,0.2
2019-03-24T02:07:47.996Z,0.2
2019-03-24T02:07:59.774Z,0.2
2019-03-24T02:08:11.546Z,0.2
2019-03-24T02:08:23.300Z,0.1
2019-03-24T02:08:35.075Z,0.1
2019-03-24T02:08:46.880Z,0.1
2019-03-24T02:08:59.650Z,0.2
2019-03-24T02:09:11.405Z,0.2
2019-03-24T02:09:23.180Z,0.5
2019-03-24T02:09:34.942Z,0.5
2019-03-24T02:09:46.692Z,0.5
2019-03-24T02:09:58.489Z,0.2
2019-03-24T02:10:10.260Z,0.2
2019-03-24T02:10:22.037Z,0.2
2019-03-24T02:10:33.805Z,0.2
2019-03-24T02:10:45.559Z,0.1
2019-03-24T02:10:57.311Z,0.1
2019-03-24T02:11:09.083Z,0.1
2019-03-24T02:11:20.914Z,0.1
2019-03-24T02:11:32.666Z,0.1
2019-03-24T02:11:44.426Z,0.2
2019-03-24T02:11:57.204Z,0.2
2019-03-24T02:12:08.971Z,0.2
2019-03-24T02:12:20.754Z,0.2
2019-03-24T02:12:32.534Z,0.2
2019-03-24T02:12:44.289Z,0.1
2019-03-24T02:12:56.043Z,0.3
2019-03-24T02:13:07.785Z,0.4
2019-03-24T02:13:19.554Z,0.3
2019-03-24T02:13:31.321Z,0.1
2019-03-24T02:13:43.080Z,0.1
2019-03-24T02:13:54.862Z,0.1
2019-03-24T02:14:06.656Z,0.1
2019-03-24T02:14:18.419Z,0.1
2019-03-24T02:14:30.209Z,0.1
2019-03-24T02:14:41.988Z,0.4
2019-03-24T02:14:53.733Z,0.4
2019-03-24T02:15:05.505Z,0.4
2019-03-24T02:15:17.251Z,0.2
2019-03-24T02:15:29.013Z,0.2
2019-03-24T02:15:40.759Z,0.2
2019-03-24T02:15:52.527Z,0.4
2019-03-24T02:16:09.197Z,0.4
2019-03-24T02:16:17.065Z,0.4
2019-03-24T02:16:28.827Z,0.1
2019-03-24T02:16:40.622Z,0.1
2019-03-24T02:16:52.398Z,0.1
2019-03-24T02:17:04.160Z,0.1
2019-03-24T02:17:15.936Z,0.2
2019-03-24T02:17:27.727Z,0.2
2019-03-24T02:17:39.511Z,0.1
2019-03-24T02:17:51.282Z,0.2
2019-03-24T02:18:03.042Z,0.4
2019-03-24T02:18:14.816Z,0.5
2019-03-24T02:18:26.579Z,0.5
2019-03-24T02:18:38.350Z,0.5
2019-03-24T02:18:50.130Z,0.5
2019-03-24T02:19:01.882Z,0.2
2019-03-24T02:19:13.640Z,0.2
2019-03-24T02:19:25.445Z,0.2
2019-03-24T02:19:37.216Z,0.2
2019-03-24T02:19:48.957Z,0.3
2019-03-24T02:20:00.731Z,0.2
2019-03-24T02:20:12.484Z,0.2
2019-03-24T02:20:24.257Z,0.3
2019-03-24T02:20:36.012Z,0.2
2019-03-24T02:20:47.781Z,0.4
2019-03-24T02:20:59.545Z,0.6
2019-03-24T02:21:11.330Z,0.4
2019-03-24T02:21:23.092Z,0.4
2019-03-24T02:21:34.880Z,0.1
2019-03-24T02:21:46.677Z,0.1
2019-03-24T02:21:58.460Z,0.2
2019-03-24T02:22:10.226Z,0.2
2019-03-24T02:22:22.021Z,0.2
2019-03-24T02:22:33.927Z,0.2
2019-03-24T02:22:45.684Z,0.2
2019-03-24T02:22:57.459Z,0.3
2019-03-24T02:23:09.225Z,0.3
2019-03-24T02:23:21.005Z,0.2
2019-03-24T02:23:32.784Z,0.2
2019-03-24T02:23:44.566Z,0.2
2019-03-24T02:23:56.335Z,0.2
2019-03-24T02:24:08.119Z,0.1
2019-03-24T02:24:19.876Z,0.1
2019-03-24T02:24:31.637Z,0.3
2019-03-24T02:24:43.397Z,0.5
2019-03-24T02:24:55.173Z,0.5
2019-03-24T02:25:06.957Z,0.4
2019-03-24T02:25:18.724Z,0.1
2019-03-24T02:25:30.516Z,0.2
2019-03-24T02:25:42.281Z,0.2
2019-03-24T02:25:54.033Z,0.2
2019-03-24T02:26:05.805Z,0.2
2019-03-24T02:26:17.578Z,0.2
2019-03-24T02:26:29.338Z,0.2
2019-03-24T02:26:41.125Z,0.2
2019-03-24T02:26:52.890Z,0.2
2019-03-24T02:27:04.652Z,0.2
2019-03-24T02:27:16.432Z,0.1
2019-03-24T02:27:28.269Z,0.2
2019-03-24T02:27:40.042Z,0.2
2019-03-24T02:27:51.803Z,0.2
2019-03-24T02:28:03.564Z,0.1
2019-03-24T02:28:17.388Z,0.1
2019-03-24T02:28:27.101Z,0.1
2019-03-24T02:28:38.853Z,0.2
2019-03-24T02:28:50.622Z,0.2
2019-03-24T02:29:02.376Z,0.2
2019-03-24T02:29:14.159Z,0.2
2019-03-24T02:29:25.942Z,0.2
2019-03-24T02:29:37.724Z,0.3
2019-03-24T02:29:49.513Z,0.3
2019-03-24T02:30:01.297Z,0.2
2019-03-24T02:30:13.063Z,0.1
2019-03-24T02:30:24.833Z,0.1
2019-03-24T02:30:36.600Z,0.1
2019-03-24T02:30:48.356Z,0.1
2019-03-24T02:31:00.108Z,0.1
2019-03-24T02:31:11.858Z,0.2
2019-03-24T02:31:23.615Z,0.2
2019-03-24T02:31:35.381Z,0.3
2019-03-24T02:31:47.147Z,0.2
2019-03-24T02:31:58.910Z,0.3
2019-03-24T02:32:10.664Z,0.3
2019-03-24T02:32:22.407Z,0.2
2019-03-24T02:32:34.174Z,0.2
2019-03-24T02:32:45.971Z,0.1
2019-03-24T02:32:57.715Z,0.1
2019-03-24T02:33:09.471Z,0.1
2019-03-24T02:33:21.234Z,0.1
2019-03-24T02:33:32.977Z,0.1
2019-03-24T02:33:44.757Z,0.1
2019-03-24T02:33:56.532Z,0.1
2019-03-24T02:34:08.312Z,0.1
2019-03-24T02:34:20.077Z,0.1
2019-03-24T02:34:31.887Z,0.1
2019-03-24T02:34:43.641Z,0.2
2019-03-24T02:34:55.408Z,0.2
2019-03-24T02:35:07.186Z,0.1
2019-03-24T02:35:18.921Z,0.2
2019-03-24T02:35:30.685Z,0.2
2019-03-24T02:35:42.478Z,0.1
2019-03-24T02:35:54.400Z,0.2
2019-03-24T02:36:06.178Z,0.2
2019-03-24T02:36:17.971Z,0.1
2019-03-24T02:36:29.732Z,0.1
2019-03-24T02:36:41.522Z,0.1
2019-03-24T02:36:53.309Z,0.1
2019-03-24T02:37:05.066Z,0.2
2019-03-24T02:37:16.851Z,0.2
2019-03-24T02:37:28.620Z,0.2
2019-03-24T02:37:40.403Z,0.2
2019-03-24T02:37:52.153Z,0.2
2019-03-24T02:38:03.907Z,0.1
2019-03-24T02:38:15.702Z,0.1
2019-03-24T02:38:27.498Z,0.2
2019-03-24T02:38:39.277Z,0.1
2019-03-24T02:38:51.049Z,0.1
2019-03-24T02:39:02.840Z,0.1
2019-03-24T02:39:14.591Z,0.1
2019-03-24T02:39:26.362Z,0.1
2019-03-24T02:39:38.104Z,0.1
2019-03-24T02:39:49.865Z,0.1
2019-03-24T02:40:01.660Z,0.1
2019-03-24T02:40:13.441Z,0.1
2019-03-24T02:40:25.218Z,0.2
2019-03-24T02:40:36.995Z,0.2
2019-03-24T02:40:48.784Z,0.3
2019-03-24T02:41:00.561Z,0.3
2019-03-24T02:41:12.317Z,0.3
2019-03-24T02:41:25.083Z,0.2
2019-03-24T02:41:36.823Z,0.1
2019-03-24T02:41:48.601Z,0.4
2019-03-24T02:42:00.408Z,0.3
2019-03-24T02:42:12.138Z,0.1
2019-03-24T02:42:23.897Z,0.1
2019-03-24T02:42:35.674Z,0.1